createdAt,value
2022-12-20T00:00:10.036Z,-3.93
2022-12-20T00:02:39.870Z,-3.80
2022-12-20T00:05:21.068Z,-3.54
2022-12-20T00:07:49.678Z,-3.74
2022-12-20T00:10:21.867Z,-3.81
2022-12-20T00:12:53.947Z,-3.92
2022-12-20T00:15:27.161Z,-3.90
2022-12-20T00:18:01.224Z,-4.02
2022-12-20T00:20:30.263Z,-3.88
2022-12-20T00:22:59.996Z,-4.07
2022-12-20T00:25:33.321Z,-4.01
2022-12-20T00:28:05.446Z,-4.07
2022-12-20T00:30:37.066Z,-4.09
2022-12-20T00:33:07.063Z,-4.04
2022-12-20T00:35:35.272Z,-4.15
2022-12-20T00:38:04.977Z,-4.18
2022-12-20T00:40:36.512Z,-4.42
2022-12-20T00:43:04.728Z,-4.37
2022-12-20T00:45:38.084Z,-4.70
2022-12-20T00:48:12.637Z,-4.61
2022-12-20T00:50:41.952Z,-4.76
2022-12-20T00:53:10.939Z,-4.90
2022-12-20T00:55:43.085Z,-4.86
2022-12-20T00:58:11.566Z,-4.87
2022-12-20T01:00:40.472Z,-4.93
2022-12-20T01:03:09.033Z,-4.93
2022-12-20T01:05:36.825Z,-4.88
2022-12-20T01:08:05.081Z,-4.90
2022-12-20T01:10:32.955Z,-4.84
2022-12-20T01:13:00.607Z,-4.83
2022-12-20T01:15:29.139Z,-4.95
2022-12-20T01:17:58.207Z,-4.92
2022-12-20T01:20:25.691Z,-4.79
2022-12-20T01:22:53.285Z,-4.65
2022-12-20T01:25:20.946Z,-4.73
2022-12-20T01:27:48.484Z,-4.71
2022-12-20T01:30:54.758Z,-4.57
2022-12-20T01:33:45.988Z,-4.75
2022-12-20T01:37:04.062Z,-4.79
2022-12-20T01:40:13.335Z,-4.78
2022-12-20T01:42:40.970Z,-4.65
2022-12-20T01:45:13.771Z,-4.76
2022-12-20T01:47:41.576Z,-4.60
2022-12-20T01:50:09.695Z,-4.60
2022-12-20T01:52:43.809Z,-4.53
2022-12-20T01:55:17.261Z,-4.39
2022-12-20T01:58:13.647Z,-4.55
2022-12-20T02:00:41.279Z,-4.63
2022-12-20T02:03:12.423Z,-4.68
2022-12-20T02:05:45.459Z,-4.56
2022-12-20T02:08:16.505Z,-4.79
2022-12-20T02:10:51.565Z,-4.60
2022-12-20T02:13:54.480Z,-4.57
2022-12-20T02:16:28.102Z,-4.62
2022-12-20T02:20:01.287Z,-4.56
2022-12-20T02:23:09.014Z,-4.48
2022-12-20T02:25:55.105Z,-4.54
2022-12-20T02:28:28.724Z,-4.57
2022-12-20T02:31:03.560Z,-4.55
2022-12-20T02:33:31.562Z,-4.61
2022-12-20T02:36:00.030Z,-4.67
2022-12-20T02:38:35.240Z,-4.71
2022-12-20T02:41:26.348Z,-4.60
2022-12-20T02:44:19.245Z,-4.69
2022-12-20T02:46:49.736Z,-4.73
2022-12-20T02:49:20.161Z,-4.81
2022-12-20T02:51:49.827Z,-4.91
2022-12-20T02:54:18.425Z,-4.95
2022-12-20T02:57:08.125Z,-4.88
2022-12-20T02:59:56.257Z,-4.78
2022-12-20T03:02:26.307Z,-4.98
2022-12-20T03:04:55.772Z,-5.13
2022-12-20T03:07:23.639Z,-5.09
2022-12-20T03:09:51.529Z,-5.10
2022-12-20T03:12:19.141Z,-5.10
2022-12-20T03:14:46.699Z,-5.13
2022-12-20T03:17:15.329Z,-5.10
2022-12-20T03:19:43.184Z,-5.10
2022-12-20T03:22:11.382Z,-5.01
2022-12-20T03:24:39.062Z,-5.07
2022-12-20T03:27:12.339Z,-5.22
2022-12-20T03:29:40.031Z,-5.11
2022-12-20T03:32:08.447Z,-5.05
2022-12-20T03:34:36.075Z,-5.01
2022-12-20T03:37:04.365Z,-5.05
2022-12-20T03:39:32.209Z,-5.08
2022-12-20T03:42:00.778Z,-4.96
2022-12-20T03:44:28.389Z,-4.95
2022-12-20T03:46:56.316Z,-5.14
2022-12-20T03:49:24.003Z,-5.14
2022-12-20T03:51:52.554Z,-5.09
2022-12-20T03:54:20.537Z,-5.05
2022-12-20T03:57:04.179Z,-5.01
2022-12-20T03:59:32.426Z,-4.97
2022-12-20T04:02:01.918Z,-4.93
2022-12-20T04:04:30.611Z,-5.02
2022-12-20T04:06:58.135Z,-5.01
2022-12-20T04:09:26.205Z,-4.96
2022-12-20T04:11:59.177Z,-4.94
2022-12-20T04:14:28.014Z,-4.87
2022-12-20T04:16:55.892Z,-4.81
2022-12-20T04:19:24.296Z,-4.91
2022-12-20T04:21:51.900Z,-4.89
2022-12-20T04:24:21.065Z,-4.99
2022-12-20T04:27:06.892Z,-4.99
2022-12-20T04:29:35.072Z,-5.18
2022-12-20T04:32:04.065Z,-5.14
2022-12-20T04:34:31.738Z,-5.21
2022-12-20T04:36:59.951Z,-5.24
2022-12-20T04:39:38.727Z,-5.16
2022-12-20T04:42:35.241Z,-5.19
2022-12-20T04:45:04.581Z,-5.14
2022-12-20T04:47:32.246Z,-5.11
2022-12-20T04:50:00.250Z,-5.14
2022-12-20T04:52:48.275Z,-5.09
2022-12-20T04:55:17.222Z,-5.12
2022-12-20T04:57:45.664Z,-5.01
2022-12-20T05:00:15.733Z,-4.99
2022-12-20T05:02:46.687Z,-5.03
2022-12-20T05:05:17.660Z,-5.03
2022-12-20T05:10:37.520Z,-4.97
2022-12-20T05:13:09.234Z,-5.42
2022-12-20T05:15:43.863Z,-5.62
2022-12-20T05:18:12.436Z,-5.52
2022-12-20T05:21:16.203Z,-5.53
2022-12-20T05:24:04.950Z,-5.29
2022-12-20T05:26:38.850Z,-5.04
2022-12-20T05:29:06.496Z,-4.92
2022-12-20T05:31:35.101Z,-4.62
2022-12-20T05:34:03.628Z,-4.40
2022-12-20T05:36:35.352Z,-3.99
2022-12-20T05:39:06.405Z,-3.63
2022-12-20T05:41:37.693Z,-3.28
2022-12-20T05:44:08.327Z,-2.87
2022-12-20T05:46:38.899Z,-2.54
2022-12-20T05:49:11.888Z,-2.43
2022-12-20T05:51:39.587Z,-2.10
2022-12-20T05:54:26.422Z,-1.78
2022-12-20T05:57:03.384Z,-1.51
2022-12-20T05:59:35.866Z,-1.15
2022-12-20T06:02:06.498Z,-0.89
2022-12-20T06:04:35.797Z,-0.67
2022-12-20T06:07:11.163Z,-0.49
2022-12-20T06:09:39.336Z,-0.37
2022-12-20T06:12:12.021Z,-0.37
2022-12-20T06:14:40.639Z,-0.28
2022-12-20T06:17:08.362Z,-0.44
2022-12-20T06:19:36.480Z,-0.37
2022-12-20T06:22:04.335Z,-0.35
2022-12-20T06:24:51.147Z,-0.14
2022-12-20T06:27:23.727Z,0.14
2022-12-20T06:30:14.791Z,0.45
2022-12-20T06:33:05.100Z,0.67
2022-12-20T06:35:33.270Z,0.77
2022-12-20T06:38:01.306Z,0.62
2022-12-20T06:40:32.695Z,1.05
2022-12-20T06:43:02.177Z,1.33
2022-12-20T06:45:31.729Z,1.53
2022-12-20T06:48:02.470Z,1.87
2022-12-20T06:50:33.684Z,2.00
2022-12-20T06:53:01.559Z,2.42
2022-12-20T06:55:29.443Z,2.84
2022-12-20T06:57:57.271Z,3.26
2022-12-20T07:00:26.524Z,3.34
2022-12-20T07:02:55.211Z,3.47
2022-12-20T07:05:41.983Z,3.47
2022-12-20T07:08:10.144Z,3.45
2022-12-20T07:10:57.237Z,3.63
2022-12-20T07:13:24.996Z,3.66
2022-12-20T07:15:59.739Z,3.60
2022-12-20T07:18:27.593Z,3.20
2022-12-20T07:20:55.567Z,2.86
2022-12-20T07:23:23.176Z,2.43
2022-12-20T07:25:58.583Z,2.30
2022-12-20T07:28:27.740Z,2.17
2022-12-20T07:30:55.629Z,2.06
2022-12-20T07:33:23.335Z,1.84
2022-12-20T07:35:54.495Z,1.81
2022-12-20T07:38:22.819Z,1.39
2022-12-20T07:40:50.895Z,0.89
2022-12-20T07:43:18.742Z,0.60
2022-12-20T07:45:47.830Z,0.51
2022-12-20T07:48:19.724Z,0.34
2022-12-20T07:50:49.394Z,0.13
2022-12-20T07:53:18.342Z,-0.14
2022-12-20T07:55:46.600Z,-0.43
2022-12-20T07:58:15.766Z,-0.82
2022-12-20T08:00:44.416Z,-0.91
2022-12-20T08:03:21.461Z,-1.16
2022-12-20T08:05:55.909Z,-1.38
2022-12-20T08:08:24.511Z,-1.59
2022-12-20T08:10:52.782Z,-2.09
2022-12-20T08:13:20.565Z,-2.13
2022-12-20T08:15:48.407Z,-2.25
2022-12-20T08:18:16.636Z,-2.50
2022-12-20T08:20:44.566Z,-2.48
2022-12-20T08:23:12.231Z,-2.61
2022-12-20T08:25:42.035Z,-2.70
2022-12-20T08:28:10.399Z,-2.69
2022-12-20T08:30:38.405Z,-2.97
2022-12-20T08:33:06.567Z,-3.19
2022-12-20T08:35:34.361Z,-3.07
2022-12-20T08:38:02.053Z,-3.20
2022-12-20T08:40:29.869Z,-3.66
2022-12-20T08:42:59.883Z,-3.63
2022-12-20T08:45:29.518Z,-3.70
2022-12-20T08:47:57.303Z,-3.74
2022-12-20T08:50:27.328Z,-4.10
2022-12-20T08:52:54.905Z,-4.12
2022-12-20T08:55:27.737Z,-4.14
2022-12-20T08:57:57.280Z,-4.49
2022-12-20T09:00:25.011Z,-4.58
2022-12-20T09:02:55.365Z,-4.68
2022-12-20T09:05:23.346Z,-4.67
2022-12-20T09:07:51.021Z,-5.12
2022-12-20T09:10:18.830Z,-5.03
2022-12-20T09:12:46.610Z,-5.20
2022-12-20T09:15:14.626Z,-5.23
2022-12-20T09:17:42.423Z,-5.36
2022-12-20T09:20:10.511Z,-5.40
2022-12-20T09:22:38.198Z,-5.13
2022-12-20T09:25:07.458Z,-5.17
2022-12-20T09:27:35.305Z,-5.38
2022-12-20T09:30:03.060Z,-5.50
2022-12-20T09:32:31.818Z,-5.39
2022-12-20T09:34:59.349Z,-5.32
2022-12-20T09:37:27.088Z,-5.30
2022-12-20T09:39:54.765Z,-5.30
2022-12-20T09:42:27.280Z,-5.32
2022-12-20T09:45:06.883Z,-5.54
2022-12-20T09:47:38.127Z,-5.34
2022-12-20T09:50:07.898Z,-5.52
2022-12-20T09:52:40.613Z,-5.62
2022-12-20T09:55:18.067Z,-5.75
2022-12-20T09:58:10.439Z,-5.86
2022-12-20T10:00:53.516Z,-5.87
2022-12-20T10:03:32.098Z,-6.08
2022-12-20T10:06:09.414Z,-6.18
2022-12-20T10:09:12.561Z,-6.01
2022-12-20T10:12:02.009Z,-5.98
2022-12-20T10:14:44.962Z,-5.89
2022-12-20T10:17:44.614Z,-5.80
2022-12-20T10:20:12.121Z,-6.04
2022-12-20T10:22:53.229Z,-6.08
2022-12-20T10:25:30.582Z,-6.03
2022-12-20T10:28:01.028Z,-6.07
2022-12-20T10:30:30.427Z,-6.17
2022-12-20T10:32:59.212Z,-6.10
2022-12-20T10:35:31.602Z,-6.31
2022-12-20T10:38:07.565Z,-6.41
2022-12-20T10:41:10.628Z,-6.49
2022-12-20T10:43:28.862Z,-6.29
2022-12-20T10:46:01.281Z,-6.36
2022-12-20T10:48:33.562Z,-6.30
2022-12-20T10:51:16.081Z,-6.21
2022-12-20T10:54:01.501Z,-6.14
2022-12-20T10:56:38.951Z,-6.17
2022-12-20T10:59:18.737Z,-6.14
2022-12-20T11:01:48.445Z,-6.38
2022-12-20T11:04:36.962Z,-6.41
2022-12-20T11:07:24.953Z,-6.24
2022-12-20T11:09:56.772Z,-6.35
2022-12-20T11:12:24.597Z,-6.39
2022-12-20T11:15:08.883Z,-6.30
2022-12-20T11:17:49.154Z,-6.43
2022-12-20T11:20:26.911Z,-6.40
2022-12-20T11:23:32.861Z,-6.25
2022-12-20T11:26:30.567Z,-6.41
2022-12-20T11:29:39.561Z,-6.20
2022-12-20T11:32:16.873Z,-6.31
2022-12-20T11:35:11.517Z,-6.44
2022-12-20T11:38:08.976Z,-6.49
2022-12-20T11:40:50.614Z,-6.55
2022-12-20T11:44:15.327Z,-6.51
2022-12-20T11:46:49.046Z,-6.37
2022-12-20T11:49:26.547Z,-6.51
2022-12-20T11:52:01.529Z,-6.56
2022-12-20T11:55:08.245Z,-6.61
2022-12-20T12:00:53.864Z,-6.78
2022-12-20T12:03:28.601Z,-6.88
2022-12-20T12:06:07.131Z,-6.80
2022-12-20T12:08:50.455Z,-6.82
2022-12-20T12:12:04.061Z,-6.72
2022-12-20T12:14:31.667Z,-6.79
2022-12-20T12:17:08.448Z,-6.82
2022-12-20T12:19:41.465Z,-6.73
2022-12-20T12:22:17.872Z,-6.71
2022-12-20T12:24:52.953Z,-6.70
2022-12-20T12:27:27.014Z,-6.69
2022-12-20T12:29:58.328Z,-6.65
2022-12-20T12:32:44.153Z,-6.82
2022-12-20T12:35:39.824Z,-7.06
2022-12-20T12:38:29.215Z,-6.96
2022-12-20T12:41:15.859Z,-7.12
2022-12-20T12:43:48.508Z,-6.90
2022-12-20T12:46:27.788Z,-7.02
2022-12-20T12:49:05.536Z,-6.78
2022-12-20T12:51:39.992Z,-6.71
2022-12-20T12:54:10.574Z,-6.62
2022-12-20T12:56:46.416Z,-6.58
2022-12-20T12:59:20.399Z,-6.49
2022-12-20T13:02:14.568Z,-6.46
2022-12-20T13:05:01.934Z,-6.50
2022-12-20T13:07:33.726Z,-6.55
2022-12-20T13:10:29.861Z,-6.52
2022-12-20T13:13:02.261Z,-6.53
2022-12-20T13:15:32.849Z,-6.51
2022-12-20T13:18:18.101Z,-6.48
2022-12-20T13:21:20.575Z,-6.34
2022-12-20T13:23:48.397Z,-6.27
2022-12-20T13:26:52.203Z,-6.22
2022-12-20T13:29:28.432Z,-6.24
2022-12-20T13:31:56.470Z,-6.25
2022-12-20T13:34:54.960Z,-6.16
2022-12-20T13:37:54.825Z,-6.10
2022-12-20T13:41:10.992Z,-6.14
2022-12-20T13:43:45.109Z,-6.24
2022-12-20T13:46:21.917Z,-6.15
2022-12-20T13:49:03.945Z,-6.04
2022-12-20T13:51:38.379Z,-6.03
2022-12-20T13:54:25.202Z,-6.00
2022-12-20T13:57:09.059Z,-6.33
2022-12-20T13:59:37.167Z,-6.46
2022-12-20T14:02:18.469Z,-6.41
2022-12-20T14:05:04.583Z,-6.44
2022-12-20T14:07:34.895Z,-6.53
2022-12-20T14:10:26.483Z,-6.32
2022-12-20T14:12:55.139Z,-6.34
2022-12-20T14:15:34.651Z,-6.26
2022-12-20T14:18:15.915Z,-6.21
2022-12-20T14:20:44.191Z,-6.25
2022-12-20T14:23:16.713Z,-6.21
2022-12-20T14:25:51.298Z,-6.07
2022-12-20T14:28:31.940Z,-5.97
2022-12-20T14:31:06.508Z,-6.03
2022-12-20T14:33:38.703Z,-5.96
2022-12-20T14:36:20.271Z,-5.88
2022-12-20T14:38:50.880Z,-5.97
2022-12-20T14:41:40.609Z,-5.92
2022-12-20T14:44:08.202Z,-5.83
2022-12-20T14:46:36.422Z,-5.75
2022-12-20T14:49:25.348Z,-5.58
2022-12-20T14:52:06.921Z,-5.62
2022-12-20T14:57:44.437Z,-5.51
2022-12-20T15:00:15.161Z,-5.53
2022-12-20T15:02:55.047Z,-5.56
2022-12-20T15:05:35.509Z,-5.44
2022-12-20T15:08:27.548Z,-5.43
2022-12-20T15:10:55.359Z,-5.74
2022-12-20T15:13:28.228Z,-5.63
2022-12-20T15:15:58.386Z,-5.44
2022-12-20T15:18:26.114Z,-5.52
2022-12-20T15:21:12.869Z,-5.42
2022-12-20T15:23:49.965Z,-5.43
2022-12-20T15:26:26.800Z,-5.45
2022-12-20T15:28:55.398Z,-5.39
2022-12-20T15:31:32.602Z,-5.40
2022-12-20T15:34:08.459Z,-5.46
2022-12-20T15:36:36.098Z,-5.46
2022-12-20T15:39:13.642Z,-5.64
2022-12-20T15:41:49.996Z,-5.69
2022-12-20T15:44:21.257Z,-5.55
2022-12-20T15:46:50.094Z,-5.51
2022-12-20T15:49:23.774Z,-5.47
2022-12-20T15:51:53.162Z,-5.47
2022-12-20T15:54:36.056Z,-5.42
2022-12-20T15:57:10.148Z,-5.52
2022-12-20T16:02:28.489Z,-5.65
2022-12-20T16:04:57.960Z,-5.79
2022-12-20T16:07:26.139Z,-5.72
2022-12-20T16:09:54.654Z,-5.71
2022-12-20T16:12:36.341Z,-5.66
2022-12-20T16:15:04.339Z,-5.59
2022-12-20T16:17:32.294Z,-5.55
2022-12-20T16:20:00.304Z,-5.53
2022-12-20T16:22:28.206Z,-5.53
2022-12-20T16:24:56.224Z,-5.56
2022-12-20T16:27:23.870Z,-5.45
2022-12-20T16:29:51.464Z,-5.40
2022-12-20T16:32:22.101Z,-5.39
2022-12-20T16:34:51.255Z,-5.39
2022-12-20T16:37:19.137Z,-5.29
2022-12-20T16:39:47.814Z,-5.31
2022-12-20T16:42:18.318Z,-5.30
2022-12-20T16:44:46.435Z,-5.34
2022-12-20T16:47:16.554Z,-5.27
2022-12-20T16:49:53.288Z,-5.29
2022-12-20T16:52:28.231Z,-5.66
2022-12-20T16:54:56.572Z,-5.64
2022-12-20T16:57:24.166Z,-5.61
2022-12-20T16:59:55.730Z,-5.63
2022-12-20T17:02:29.637Z,-5.52
2022-12-20T17:04:58.076Z,-5.58
2022-12-20T17:07:26.113Z,-5.51
2022-12-20T17:10:12.841Z,-5.44
2022-12-20T17:12:40.618Z,-5.37
2022-12-20T17:15:18.037Z,-5.69
2022-12-20T17:17:46.155Z,-5.54
2022-12-20T17:20:15.138Z,-5.57
2022-12-20T17:25:33.335Z,-5.58
2022-12-20T17:28:01.044Z,-5.53
2022-12-20T17:30:28.788Z,-5.45
2022-12-20T17:32:56.357Z,-5.45
2022-12-20T17:35:32.960Z,-5.53
2022-12-20T17:38:02.176Z,-5.65
2022-12-20T17:40:29.990Z,-5.63
2022-12-20T17:42:57.643Z,-5.56
2022-12-20T17:45:36.526Z,-5.37
2022-12-20T17:48:05.512Z,-5.44
2022-12-20T17:50:33.254Z,-5.43
2022-12-20T17:53:01.485Z,-5.53
2022-12-20T17:55:29.446Z,-5.27
2022-12-20T17:57:57.228Z,-5.43
2022-12-20T18:00:34.585Z,-5.21
2022-12-20T18:03:04.542Z,-5.17
2022-12-20T18:05:32.344Z,-5.16
2022-12-20T18:08:00.065Z,-5.10
2022-12-20T18:10:27.802Z,-5.07
2022-12-20T18:12:55.499Z,-5.06
2022-12-20T18:15:23.298Z,-5.15
2022-12-20T18:17:51.190Z,-4.98
2022-12-20T18:20:18.892Z,-5.06
2022-12-20T18:22:46.613Z,-5.22
2022-12-20T18:25:14.322Z,-4.95
2022-12-20T18:27:43.273Z,-4.88
2022-12-20T18:30:13.187Z,-5.07
2022-12-20T18:32:41.577Z,-5.05
2022-12-20T18:35:10.192Z,-4.94
2022-12-20T18:37:38.021Z,-5.06
2022-12-20T18:40:06.392Z,-4.86
2022-12-20T18:42:36.248Z,-4.82
2022-12-20T18:45:04.303Z,-4.79
2022-12-20T18:47:35.620Z,-4.80
2022-12-20T18:50:03.404Z,-4.78
2022-12-20T18:52:31.981Z,-4.77
2022-12-20T18:54:59.730Z,-4.85
2022-12-20T18:57:27.627Z,-4.85
2022-12-20T18:59:55.353Z,-4.93
2022-12-20T19:02:23.134Z,-4.97
2022-12-20T19:04:50.935Z,-4.87
2022-12-20T19:07:18.633Z,-5.04
2022-12-20T19:09:46.167Z,-5.05
2022-12-20T19:12:13.836Z,-4.94
2022-12-20T19:14:41.597Z,-4.94
2022-12-20T19:17:09.440Z,-4.95
2022-12-20T19:19:37.148Z,-4.97
2022-12-20T19:22:04.928Z,-5.04
2022-12-20T19:24:32.616Z,-5.00
2022-12-20T19:27:00.316Z,-5.03
2022-12-20T19:29:27.937Z,-4.97
2022-12-20T19:31:55.820Z,-4.99
2022-12-20T19:34:23.533Z,-4.94
2022-12-20T19:36:52.201Z,-4.96
2022-12-20T19:39:23.714Z,-5.00
2022-12-20T19:42:22.191Z,-5.02
2022-12-20T19:44:40.033Z,-5.06
2022-12-20T19:47:07.887Z,-5.10
2022-12-20T19:49:38.154Z,-5.00
2022-12-20T19:52:07.154Z,-4.96
2022-12-20T19:54:35.649Z,-5.08
2022-12-20T19:57:03.362Z,-5.08
2022-12-20T19:59:31.132Z,-5.02
2022-12-20T20:01:59.030Z,-4.99
2022-12-20T20:04:32.559Z,-4.98
2022-12-20T20:07:00.272Z,-5.04
2022-12-20T20:09:30.027Z,-4.96
2022-12-20T20:11:58.228Z,-5.06
2022-12-20T20:14:26.019Z,-5.23
2022-12-20T20:16:53.743Z,-5.27
2022-12-20T20:19:21.404Z,-5.24
2022-12-20T20:22:26.796Z,-5.04
2022-12-20T20:24:54.521Z,-5.44
2022-12-20T20:27:22.113Z,-5.31
2022-12-20T20:29:50.575Z,-5.23
2022-12-20T20:32:18.201Z,-5.24
2022-12-20T20:34:45.910Z,-5.35
2022-12-20T20:37:13.675Z,-5.27
2022-12-20T20:39:41.733Z,-5.17
2022-12-20T20:42:09.497Z,-5.32
2022-12-20T20:44:37.204Z,-5.26
2022-12-20T20:47:05.889Z,-5.34
2022-12-20T20:49:33.875Z,-5.17
2022-12-20T20:52:01.695Z,-5.24
2022-12-20T20:54:29.397Z,-5.51
2022-12-20T20:56:57.181Z,-5.21
2022-12-20T20:59:25.268Z,-5.21
2022-12-20T21:01:53.877Z,-5.29
2022-12-20T21:04:21.804Z,-5.28
2022-12-20T21:06:49.560Z,-5.21
2022-12-20T21:09:17.241Z,-5.20
2022-12-20T21:11:45.224Z,-5.22
2022-12-20T21:14:13.218Z,-5.30
2022-12-20T21:16:41.815Z,-5.25
2022-12-20T21:19:10.722Z,-5.25
2022-12-20T21:21:38.393Z,-5.29
2022-12-20T21:24:06.580Z,-5.36
2022-12-20T21:26:34.343Z,-5.29
2022-12-20T21:29:02.159Z,-5.34
2022-12-20T21:31:31.173Z,-5.47
2022-12-20T21:33:59.125Z,-5.54
2022-12-20T21:36:27.071Z,-5.57
2022-12-20T21:38:58.892Z,-5.58
2022-12-20T21:41:29.203Z,-5.93
2022-12-20T21:43:58.678Z,-5.94
2022-12-20T21:46:28.647Z,-5.96
2022-12-20T21:48:56.486Z,-6.14
2022-12-20T21:51:26.303Z,-6.30
2022-12-20T21:53:57.155Z,-6.38
2022-12-20T21:56:27.201Z,-6.68
2022-12-20T21:58:55.657Z,-6.82
2022-12-20T22:01:26.058Z,-6.79
2022-12-20T22:03:57.196Z,-6.94
2022-12-20T22:06:25.899Z,-6.66
2022-12-20T22:08:53.669Z,-6.69
2022-12-20T22:11:21.331Z,-6.59
2022-12-20T22:13:49.521Z,-6.60
2022-12-20T22:16:21.534Z,-6.78
2022-12-20T22:18:51.030Z,-6.57
2022-12-20T22:21:20.916Z,-6.38
2022-12-20T22:23:49.357Z,-6.46
2022-12-20T22:26:22.150Z,-6.62
2022-12-20T22:28:52.585Z,-6.74
2022-12-20T22:31:21.917Z,-6.85
2022-12-20T22:33:49.806Z,-6.80
2022-12-20T22:36:17.806Z,-6.72
2022-12-20T22:38:45.570Z,-6.82
2022-12-20T22:41:19.297Z,-6.99
2022-12-20T22:43:47.738Z,-7.04
2022-12-20T22:46:17.065Z,-7.08
2022-12-20T22:48:46.108Z,-7.33
2022-12-20T22:51:22.061Z,-7.27
2022-12-20T22:53:50.264Z,-7.07
2022-12-20T22:56:19.948Z,-7.02
2022-12-20T22:58:48.207Z,-7.23
2022-12-20T23:01:17.793Z,-7.31
2022-12-20T23:03:46.258Z,-7.33
2022-12-20T23:06:16.835Z,-7.40
2022-12-20T23:08:44.831Z,-7.48
2022-12-20T23:11:40.443Z,-7.57
2022-12-20T23:14:35.571Z,-7.40
2022-12-20T23:17:04.298Z,-7.47
2022-12-20T23:19:50.789Z,-7.47
2022-12-20T23:22:37.340Z,-7.60
2022-12-20T23:25:13.767Z,-7.52
2022-12-20T23:27:47.520Z,-7.62
2022-12-20T23:30:22.488Z,-7.85
2022-12-20T23:32:51.934Z,-7.62
2022-12-20T23:35:28.533Z,-7.82
2022-12-20T23:37:59.931Z,-7.54
2022-12-20T23:40:36.684Z,-7.52
2022-12-20T23:43:16.411Z,-7.47
2022-12-20T23:45:45.836Z,-7.40
2022-12-20T23:48:14.006Z,-7.47
2022-12-20T23:50:45.788Z,-7.52
2022-12-20T23:53:19.667Z,-7.43
2022-12-20T23:59:06.072Z,-7.44
